sensor_id;sensor_type;location;lat;lon;timestamp;temperature;humidity
39079;DHT22;24829;49.208;12.080;2022-12-29T00:01:35;2.70;99.90
39079;DHT22;24829;49.208;12.080;2022-12-29T00:04:00;2.70;99.90
39079;DHT22;24829;49.208;12.080;2022-12-29T00:06:26;2.70;99.90
39079;DHT22;24829;49.208;12.080;2022-12-29T00:08:52;2.70;99.90
39079;DHT22;24829;49.208;12.080;2022-12-29T00:11:18;2.70;99.90
39079;DHT22;24829;49.208;12.080;2022-12-29T00:13:44;2.70;99.90
39079;DHT22;24829;49.208;12.080;2022-12-29T00:16:28;2.70;99.90
39079;DHT22;24829;49.208;12.080;2022-12-29T00:18:54;2.70;99.90
39079;DHT22;24829;49.208;12.080;2022-12-29T00:21:20;2.80;99.90
39079;DHT22;24829;49.208;12.080;2022-12-29T00:24:05;2.80;99.90
39079;DHT22;24829;49.208;12.080;2022-12-29T00:26:53;2.80;99.90
39079;DHT22;24829;49.208;12.080;2022-12-29T00:29:38;2.80;99.90
39079;DHT22;24829;49.208;12.080;2022-12-29T00:32:23;2.80;99.90
39079;DHT22;24829;49.208;12.080;2022-12-29T00:35:08;2.90;99.90
39079;DHT22;24829;49.208;12.080;2022-12-29T00:37:35;2.90;99.90
39079;DHT22;24829;49.208;12.080;2022-12-29T00:40:19;2.90;99.90
39079;DHT22;24829;49.208;12.080;2022-12-29T00:43:03;2.80;99.90
39079;DHT22;24829;49.208;12.080;2022-12-29T00:45:48;2.90;99.90
39079;DHT22;24829;49.208;12.080;2022-12-29T00:48:13;2.90;99.90
39079;DHT22;24829;49.208;12.080;2022-12-29T00:50:38;2.90;99.90
39079;DHT22;24829;49.208;12.080;2022-12-29T00:53:04;2.90;99.90
39079;DHT22;24829;49.208;12.080;2022-12-29T00:55:29;2.90;99.90
39079;DHT22;24829;49.208;12.080;2022-12-29T00:57:55;2.90;99.90
39079;DHT22;24829;49.208;12.080;2022-12-29T01:00:20;2.90;99.90
39079;DHT22;24829;49.208;12.080;2022-12-29T01:02:46;2.90;99.90
39079;DHT22;24829;49.208;12.080;2022-12-29T01:05:11;2.90;99.90
39079;DHT22;24829;49.208;12.080;2022-12-29T01:07:36;2.90;99.90
39079;DHT22;24829;49.208;12.080;2022-12-29T01:10:02;2.90;99.90
39079;DHT22;24829;49.208;12.080;2022-12-29T01:12:36;2.90;99.90
39079;DHT22;24829;49.208;12.080;2022-12-29T01:15:10;2.90;99.90
39079;DHT22;24829;49.208;12.080;2022-12-29T01:17:36;2.90;99.90
39079;DHT22;24829;49.208;12.080;2022-12-29T01:20:02;2.90;99.90
39079;DHT22;24829;49.208;12.080;2022-12-29T01:22:28;2.90;99.90
39079;DHT22;24829;49.208;12.080;2022-12-29T01:24:53;3.00;99.90
39079;DHT22;24829;49.208;12.080;2022-12-29T01:27:19;3.00;99.90
39079;DHT22;24829;49.208;12.080;2022-12-29T01:29:44;3.00;99.90
39079;DHT22;24829;49.208;12.080;2022-12-29T01:32:10;3.00;99.90
39079;DHT22;24829;49.208;12.080;2022-12-29T01:34:35;3.00;99.90
39079;DHT22;24829;49.208;12.080;2022-12-29T01:37:01;3.00;99.90
39079;DHT22;24829;49.208;12.080;2022-12-29T01:39:26;3.00;99.90
39079;DHT22;24829;49.208;12.080;2022-12-29T01:41:51;3.10;99.90
39079;DHT22;24829;49.208;12.080;2022-12-29T01:47:01;3.00;99.90
39079;DHT22;24829;49.208;12.080;2022-12-29T01:49:26;3.00;99.90
39079;DHT22;24829;49.208;12.080;2022-12-29T01:51:58;3.00;99.90
39079;DHT22;24829;49.208;12.080;2022-12-29T01:54:27;3.00;99.90
39079;DHT22;24829;49.208;12.080;2022-12-29T01:56:53;3.10;99.90
39079;DHT22;24829;49.208;12.080;2022-12-29T01:59:22;3.10;99.90
39079;DHT22;24829;49.208;12.080;2022-12-29T02:01:48;3.10;99.90
39079;DHT22;24829;49.208;12.080;2022-12-29T02:04:13;3.10;99.90
39079;DHT22;24829;49.208;12.080;2022-12-29T02:06:50;3.00;99.90
39079;DHT22;24829;49.208;12.080;2022-12-29T02:09:17;2.90;99.90
39079;DHT22;24829;49.208;12.080;2022-12-29T02:11:42;2.90;99.90
39079;DHT22;24829;49.208;12.080;2022-12-29T02:14:09;2.80;99.90
39079;DHT22;24829;49.208;12.080;2022-12-29T02:32:30;2.80;99.90
39079;DHT22;24829;49.208;12.080;2022-12-29T02:35:09;2.70;99.90
39079;DHT22;24829;49.208;12.080;2022-12-29T02:37:51;2.70;99.90
39079;DHT22;24829;49.208;12.080;2022-12-29T02:52:43;2.90;99.90
39079;DHT22;24829;49.208;12.080;2022-12-29T02:55:11;2.90;99.90
39079;DHT22;24829;49.208;12.080;2022-12-29T02:57:37;2.90;99.90
39079;DHT22;24829;49.208;12.080;2022-12-29T03:00:10;3.00;99.90
39079;DHT22;24829;49.208;12.080;2022-12-29T03:05:09;3.00;99.90
39079;DHT22;24829;49.208;12.080;2022-12-29T03:13:13;3.10;99.90
39079;DHT22;24829;49.208;12.080;2022-12-29T03:16:35;3.10;99.90
39079;DHT22;24829;49.208;12.080;2022-12-29T03:18:58;3.10;99.90
39079;DHT22;24829;49.208;12.080;2022-12-29T03:21:32;3.20;99.90
39079;DHT22;24829;49.208;12.080;2022-12-29T03:24:17;3.20;99.90
39079;DHT22;24829;49.208;12.080;2022-12-29T03:26:44;3.20;99.90
39079;DHT22;24829;49.208;12.080;2022-12-29T03:29:11;3.20;99.90
39079;DHT22;24829;49.208;12.080;2022-12-29T03:31:37;3.20;99.90
39079;DHT22;24829;49.208;12.080;2022-12-29T03:34:03;3.20;99.90
39079;DHT22;24829;49.208;12.080;2022-12-29T03:36:33;3.30;99.90
39079;DHT22;24829;49.208;12.080;2022-12-29T03:39:19;3.30;99.90
39079;DHT22;24829;49.208;12.080;2022-12-29T03:41:45;3.20;99.90
39079;DHT22;24829;49.208;12.080;2022-12-29T03:44:12;3.20;99.90
39079;DHT22;24829;49.208;12.080;2022-12-29T03:46:37;3.20;99.90
39079;DHT22;24829;49.208;12.080;2022-12-29T03:49:03;3.20;99.90
39079;DHT22;24829;49.208;12.080;2022-12-29T03:51:28;3.20;99.90
39079;DHT22;24829;49.208;12.080;2022-12-29T03:53:54;3.20;99.90
39079;DHT22;24829;49.208;12.080;2022-12-29T03:56:19;3.20;99.90
39079;DHT22;24829;49.208;12.080;2022-12-29T03:58:45;3.10;99.90
39079;DHT22;24829;49.208;12.080;2022-12-29T04:01:10;3.10;99.90
39079;DHT22;24829;49.208;12.080;2022-12-29T04:03:35;2.90;99.90
39079;DHT22;24829;49.208;12.080;2022-12-29T04:06:01;2.90;99.90
39079;DHT22;24829;49.208;12.080;2022-12-29T04:08:26;2.80;99.90
39079;DHT22;24829;49.208;12.080;2022-12-29T04:10:52;2.80;99.90
39079;DHT22;24829;49.208;12.080;2022-12-29T04:13:17;2.80;99.90
39079;DHT22;24829;49.208;12.080;2022-12-29T04:15:43;2.80;99.90
39079;DHT22;24829;49.208;12.080;2022-12-29T04:18:09;2.90;99.90
39079;DHT22;24829;49.208;12.080;2022-12-29T04:20:34;2.90;99.90
39079;DHT22;24829;49.208;12.080;2022-12-29T04:23:19;3.00;99.90
39079;DHT22;24829;49.208;12.080;2022-12-29T04:25:45;3.00;99.90
39079;DHT22;24829;49.208;12.080;2022-12-29T04:28:10;3.00;99.90
39079;DHT22;24829;49.208;12.080;2022-12-29T04:30:35;3.00;99.90
39079;DHT22;24829;49.208;12.080;2022-12-29T04:33:01;3.00;99.90
39079;DHT22;24829;49.208;12.080;2022-12-29T04:35:26;2.90;99.90
39079;DHT22;24829;49.208;12.080;2022-12-29T04:37:52;2.90;99.90
39079;DHT22;24829;49.208;12.080;2022-12-29T04:40:17;2.90;99.90
39079;DHT22;24829;49.208;12.080;2022-12-29T04:42:43;2.90;99.90
39079;DHT22;24829;49.208;12.080;2022-12-29T04:45:08;3.00;99.90
39079;DHT22;24829;49.208;12.080;2022-12-29T04:47:34;3.00;99.90
39079;DHT22;24829;49.208;12.080;2022-12-29T04:49:59;3.00;99.90
39079;DHT22;24829;49.208;12.080;2022-12-29T04:52:25;2.90;99.90
39079;DHT22;24829;49.208;12.080;2022-12-29T04:54:50;3.00;99.90
39079;DHT22;24829;49.208;12.080;2022-12-29T04:57:16;3.00;99.90
39079;DHT22;24829;49.208;12.080;2022-12-29T04:59:41;3.00;99.90
39079;DHT22;24829;49.208;12.080;2022-12-29T05:02:06;3.00;99.90
39079;DHT22;24829;49.208;12.080;2022-12-29T05:04:32;3.00;99.90
39079;DHT22;24829;49.208;12.080;2022-12-29T05:06:57;3.00;99.90
39079;DHT22;24829;49.208;12.080;2022-12-29T05:09:23;3.00;99.90
39079;DHT22;24829;49.208;12.080;2022-12-29T05:11:49;3.10;99.90
39079;DHT22;24829;49.208;12.080;2022-12-29T05:14:14;3.10;99.90
39079;DHT22;24829;49.208;12.080;2022-12-29T05:16:40;3.10;99.90
39079;DHT22;24829;49.208;12.080;2022-12-29T05:19:05;3.10;99.90
39079;DHT22;24829;49.208;12.080;2022-12-29T05:21:31;3.10;99.90
39079;DHT22;24829;49.208;12.080;2022-12-29T05:23:56;3.10;99.90
39079;DHT22;24829;49.208;12.080;2022-12-29T05:26:21;3.10;99.90
39079;DHT22;24829;49.208;12.080;2022-12-29T05:28:47;3.10;99.90
39079;DHT22;24829;49.208;12.080;2022-12-29T05:31:12;3.10;99.90
39079;DHT22;24829;49.208;12.080;2022-12-29T05:33:38;3.10;99.90
39079;DHT22;24829;49.208;12.080;2022-12-29T05:36:07;3.20;99.90
39079;DHT22;24829;49.208;12.080;2022-12-29T05:38:33;3.20;99.90
39079;DHT22;24829;49.208;12.080;2022-12-29T05:40:58;3.30;99.90
39079;DHT22;24829;49.208;12.080;2022-12-29T05:43:24;3.30;99.90
39079;DHT22;24829;49.208;12.080;2022-12-29T05:45:49;3.30;99.90
39079;DHT22;24829;49.208;12.080;2022-12-29T05:48:15;3.30;99.90
39079;DHT22;24829;49.208;12.080;2022-12-29T05:50:40;3.30;99.90
39079;DHT22;24829;49.208;12.080;2022-12-29T05:53:06;3.30;99.90
39079;DHT22;24829;49.208;12.080;2022-12-29T05:55:31;3.40;99.90
39079;DHT22;24829;49.208;12.080;2022-12-29T05:57:57;3.30;99.90
39079;DHT22;24829;49.208;12.080;2022-12-29T06:00:22;3.30;99.90
39079;DHT22;24829;49.208;12.080;2022-12-29T06:02:47;3.30;99.90
39079;DHT22;24829;49.208;12.080;2022-12-29T06:05:13;3.30;99.90
39079;DHT22;24829;49.208;12.080;2022-12-29T06:07:38;3.30;99.90
39079;DHT22;24829;49.208;12.080;2022-12-29T06:10:04;3.30;99.90
39079;DHT22;24829;49.208;12.080;2022-12-29T06:12:30;3.30;99.90
39079;DHT22;24829;49.208;12.080;2022-12-29T06:14:55;3.30;99.90
39079;DHT22;24829;49.208;12.080;2022-12-29T06:17:21;3.30;99.90
39079;DHT22;24829;49.208;12.080;2022-12-29T06:19:46;3.30;99.90
39079;DHT22;24829;49.208;12.080;2022-12-29T06:22:12;3.30;99.90
39079;DHT22;24829;49.208;12.080;2022-12-29T06:24:37;3.20;99.90
39079;DHT22;24829;49.208;12.080;2022-12-29T06:27:03;3.10;99.90
39079;DHT22;24829;49.208;12.080;2022-12-29T06:29:29;3.10;99.90
39079;DHT22;24829;49.208;12.080;2022-12-29T06:31:54;3.00;99.90
39079;DHT22;24829;49.208;12.080;2022-12-29T06:34:23;3.00;99.90
39079;DHT22;24829;49.208;12.080;2022-12-29T06:36:48;2.90;99.90
39079;DHT22;24829;49.208;12.080;2022-12-29T06:39:14;2.80;99.90
39079;DHT22;24829;49.208;12.080;2022-12-29T06:41:39;2.80;99.90
39079;DHT22;24829;49.208;12.080;2022-12-29T06:44:05;2.80;99.90
39079;DHT22;24829;49.208;12.080;2022-12-29T06:46:30;2.80;99.90
39079;DHT22;24829;49.208;12.080;2022-12-29T06:48:56;2.80;99.90
39079;DHT22;24829;49.208;12.080;2022-12-29T06:51:21;2.80;99.90
39079;DHT22;24829;49.208;12.080;2022-12-29T06:53:46;2.80;99.90
39079;DHT22;24829;49.208;12.080;2022-12-29T06:56:12;2.80;99.90
39079;DHT22;24829;49.208;12.080;2022-12-29T06:58:37;2.80;99.90
39079;DHT22;24829;49.208;12.080;2022-12-29T07:01:03;2.80;99.90
39079;DHT22;24829;49.208;12.080;2022-12-29T07:03:28;2.80;99.90
39079;DHT22;24829;49.208;12.080;2022-12-29T07:05:54;2.80;99.90
39079;DHT22;24829;49.208;12.080;2022-12-29T07:08:19;2.90;99.90
39079;DHT22;24829;49.208;12.080;2022-12-29T07:10:45;2.90;99.90
39079;DHT22;24829;49.208;12.080;2022-12-29T07:13:11;2.90;99.90
39079;DHT22;24829;49.208;12.080;2022-12-29T07:15:36;2.90;99.90
39079;DHT22;24829;49.208;12.080;2022-12-29T07:18:02;2.90;99.90
39079;DHT22;24829;49.208;12.080;2022-12-29T07:20:29;2.90;99.90
39079;DHT22;24829;49.208;12.080;2022-12-29T07:22:54;2.90;99.90
39079;DHT22;24829;49.208;12.080;2022-12-29T07:25:20;2.90;99.90
39079;DHT22;24829;49.208;12.080;2022-12-29T07:27:45;2.90;99.90
39079;DHT22;24829;49.208;12.080;2022-12-29T07:30:11;2.90;99.90
39079;DHT22;24829;49.208;12.080;2022-12-29T07:32:36;2.90;99.90
39079;DHT22;24829;49.208;12.080;2022-12-29T07:35:02;2.90;99.90
39079;DHT22;24829;49.208;12.080;2022-12-29T07:37:27;3.00;99.90
39079;DHT22;24829;49.208;12.080;2022-12-29T07:39:53;3.00;99.90
39079;DHT22;24829;49.208;12.080;2022-12-29T07:42:18;3.00;99.90
39079;DHT22;24829;49.208;12.080;2022-12-29T07:44:44;3.00;99.90
39079;DHT22;24829;49.208;12.080;2022-12-29T07:47:09;3.00;99.90
39079;DHT22;24829;49.208;12.080;2022-12-29T07:49:34;3.10;99.90
39079;DHT22;24829;49.208;12.080;2022-12-29T07:52:00;3.10;99.90
39079;DHT22;24829;49.208;12.080;2022-12-29T07:54:25;3.20;99.90
39079;DHT22;24829;49.208;12.080;2022-12-29T07:56:51;3.30;99.90
39079;DHT22;24829;49.208;12.080;2022-12-29T07:59:16;3.30;99.90
39079;DHT22;24829;49.208;12.080;2022-12-29T08:01:42;3.40;99.90
39079;DHT22;24829;49.208;12.080;2022-12-29T08:04:07;3.50;99.90
39079;DHT22;24829;49.208;12.080;2022-12-29T08:06:33;3.50;99.90
39079;DHT22;24829;49.208;12.080;2022-12-29T08:08:58;3.50;99.90
39079;DHT22;24829;49.208;12.080;2022-12-29T08:11:25;3.50;99.90
39079;DHT22;24829;49.208;12.080;2022-12-29T08:13:50;3.60;99.90
39079;DHT22;24829;49.208;12.080;2022-12-29T08:16:16;3.60;99.90
39079;DHT22;24829;49.208;12.080;2022-12-29T08:18:41;3.60;99.90
39079;DHT22;24829;49.208;12.080;2022-12-29T08:21:07;3.60;99.90
39079;DHT22;24829;49.208;12.080;2022-12-29T08:23:32;3.70;99.90
39079;DHT22;24829;49.208;12.080;2022-12-29T08:25:59;3.70;99.90
39079;DHT22;24829;49.208;12.080;2022-12-29T08:28:24;3.70;99.90
39079;DHT22;24829;49.208;12.080;2022-12-29T08:30:50;3.70;99.90
39079;DHT22;24829;49.208;12.080;2022-12-29T08:33:15;3.80;99.90
39079;DHT22;24829;49.208;12.080;2022-12-29T08:35:41;3.80;99.90
39079;DHT22;24829;49.208;12.080;2022-12-29T08:38:06;3.80;99.90
39079;DHT22;24829;49.208;12.080;2022-12-29T08:40:32;3.80;99.90
39079;DHT22;24829;49.208;12.080;2022-12-29T08:42:57;3.80;99.90
39079;DHT22;24829;49.208;12.080;2022-12-29T08:45:22;3.80;99.90
39079;DHT22;24829;49.208;12.080;2022-12-29T08:47:48;3.80;99.90
39079;DHT22;24829;49.208;12.080;2022-12-29T08:50:13;3.80;99.90
39079;DHT22;24829;49.208;12.080;2022-12-29T08:52:39;3.70;99.90
39079;DHT22;24829;49.208;12.080;2022-12-29T08:55:04;3.70;99.90
39079;DHT22;24829;49.208;12.080;2022-12-29T08:57:30;3.70;99.90
39079;DHT22;24829;49.208;12.080;2022-12-29T08:59:55;3.80;99.90
39079;DHT22;24829;49.208;12.080;2022-12-29T09:02:21;3.80;99.90
39079;DHT22;24829;49.208;12.080;2022-12-29T09:04:46;3.80;99.90
39079;DHT22;24829;49.208;12.080;2022-12-29T09:07:12;3.80;99.90
39079;DHT22;24829;49.208;12.080;2022-12-29T09:09:37;3.80;99.90
39079;DHT22;24829;49.208;12.080;2022-12-29T09:12:02;3.90;99.90
39079;DHT22;24829;49.208;12.080;2022-12-29T09:14:28;3.90;99.90
39079;DHT22;24829;49.208;12.080;2022-12-29T09:16:53;4.00;99.90
39079;DHT22;24829;49.208;12.080;2022-12-29T09:19:38;4.00;99.90
39079;DHT22;24829;49.208;12.080;2022-12-29T09:22:03;4.10;99.90
39079;DHT22;24829;49.208;12.080;2022-12-29T09:24:29;4.30;99.90
39079;DHT22;24829;49.208;12.080;2022-12-29T09:26:54;4.30;99.90
39079;DHT22;24829;49.208;12.080;2022-12-29T09:29:20;4.40;99.90
39079;DHT22;24829;49.208;12.080;2022-12-29T09:31:45;4.40;99.90
39079;DHT22;24829;49.208;12.080;2022-12-29T09:34:11;4.50;99.90
39079;DHT22;24829;49.208;12.080;2022-12-29T09:36:36;4.50;99.90
39079;DHT22;24829;49.208;12.080;2022-12-29T09:39:01;4.50;99.90
39079;DHT22;24829;49.208;12.080;2022-12-29T09:41:29;4.50;99.90
39079;DHT22;24829;49.208;12.080;2022-12-29T09:46:46;4.50;99.90
39079;DHT22;24829;49.208;12.080;2022-12-29T09:49:48;4.60;99.90
39079;DHT22;24829;49.208;12.080;2022-12-29T09:52:06;4.60;99.90
39079;DHT22;24829;49.208;12.080;2022-12-29T09:57:03;4.70;99.90
39079;DHT22;24829;49.208;12.080;2022-12-29T09:59:38;4.60;99.90
39079;DHT22;24829;49.208;12.080;2022-12-29T10:02:08;4.70;99.90
39079;DHT22;24829;49.208;12.080;2022-12-29T10:04:38;4.60;99.90
39079;DHT22;24829;49.208;12.080;2022-12-29T10:07:10;4.70;99.90
39079;DHT22;24829;49.208;12.080;2022-12-29T10:15:16;4.80;99.90
39079;DHT22;24829;49.208;12.080;2022-12-29T10:17:46;5.00;99.90
39079;DHT22;24829;49.208;12.080;2022-12-29T10:25:18;5.20;99.90
39079;DHT22;24829;49.208;12.080;2022-12-29T10:27:46;5.30;99.90
39079;DHT22;24829;49.208;12.080;2022-12-29T10:30:12;5.30;99.90
39079;DHT22;24829;49.208;12.080;2022-12-29T10:32:45;5.40;99.90
39079;DHT22;24829;49.208;12.080;2022-12-29T10:35:17;5.60;99.90
39079;DHT22;24829;49.208;12.080;2022-12-29T10:37:46;5.70;99.90
39079;DHT22;24829;49.208;12.080;2022-12-29T10:40:32;5.80;99.90
39079;DHT22;24829;49.208;12.080;2022-12-29T10:43:01;5.80;99.90
39079;DHT22;24829;49.208;12.080;2022-12-29T10:45:31;5.90;99.90
39079;DHT22;24829;49.208;12.080;2022-12-29T10:48:00;6.00;99.90
39079;DHT22;24829;49.208;12.080;2022-12-29T10:50:28;6.00;99.90
39079;DHT22;24829;49.208;12.080;2022-12-29T10:52:55;6.10;99.90
39079;DHT22;24829;49.208;12.080;2022-12-29T10:55:27;6.10;99.90
39079;DHT22;24829;49.208;12.080;2022-12-29T10:57:53;6.20;99.90
39079;DHT22;24829;49.208;12.080;2022-12-29T11:00:21;6.20;99.90
39079;DHT22;24829;49.208;12.080;2022-12-29T11:06:00;6.30;99.90
39079;DHT22;24829;49.208;12.080;2022-12-29T11:08:17;6.30;99.90
39079;DHT22;24829;49.208;12.080;2022-12-29T11:10:44;6.30;99.90
39079;DHT22;24829;49.208;12.080;2022-12-29T11:13:17;6.40;99.90
39079;DHT22;24829;49.208;12.080;2022-12-29T11:15:47;6.40;99.90
39079;DHT22;24829;49.208;12.080;2022-12-29T11:20:54;6.60;99.90
39079;DHT22;24829;49.208;12.080;2022-12-29T11:23:21;6.60;99.90
39079;DHT22;24829;49.208;12.080;2022-12-29T11:28:31;6.60;99.90
39079;DHT22;24829;49.208;12.080;2022-12-29T11:30:58;6.50;99.90
39079;DHT22;24829;49.208;12.080;2022-12-29T11:33:27;6.40;99.90
39079;DHT22;24829;49.208;12.080;2022-12-29T11:35:56;6.40;99.90
39079;DHT22;24829;49.208;12.080;2022-12-29T11:38:23;6.40;99.90
39079;DHT22;24829;49.208;12.080;2022-12-29T11:40:50;6.30;99.90
39079;DHT22;24829;49.208;12.080;2022-12-29T11:43:21;6.30;99.90
39079;DHT22;24829;49.208;12.080;2022-12-29T11:45:48;6.30;99.90
39079;DHT22;24829;49.208;12.080;2022-12-29T11:48:18;6.40;99.90
39079;DHT22;24829;49.208;12.080;2022-12-29T11:50:48;6.40;99.90
39079;DHT22;24829;49.208;12.080;2022-12-29T11:53:16;6.40;99.90
39079;DHT22;24829;49.208;12.080;2022-12-29T11:55:50;6.50;99.90
39079;DHT22;24829;49.208;12.080;2022-12-29T11:58:16;6.60;99.90
39079;DHT22;24829;49.208;12.080;2022-12-29T12:00:41;6.70;99.90
39079;DHT22;24829;49.208;12.080;2022-12-29T12:03:13;6.70;99.90
39079;DHT22;24829;49.208;12.080;2022-12-29T12:05:44;6.80;99.90
39079;DHT22;24829;49.208;12.080;2022-12-29T12:08:17;6.90;99.90
39079;DHT22;24829;49.208;12.080;2022-12-29T12:10:46;6.90;99.90
39079;DHT22;24829;49.208;12.080;2022-12-29T12:13:22;6.90;99.90
39079;DHT22;24829;49.208;12.080;2022-12-29T12:18:37;7.00;99.90
39079;DHT22;24829;49.208;12.080;2022-12-29T12:21:15;7.10;99.90
39079;DHT22;24829;49.208;12.080;2022-12-29T12:26:28;7.40;99.90
39079;DHT22;24829;49.208;12.080;2022-12-29T12:29:04;7.60;99.90
39079;DHT22;24829;49.208;12.080;2022-12-29T12:31:41;7.70;99.90
39079;DHT22;24829;49.208;12.080;2022-12-29T12:34:14;7.80;99.90
39079;DHT22;24829;49.208;12.080;2022-12-29T12:36:46;7.80;99.90
39079;DHT22;24829;49.208;12.080;2022-12-29T12:39:19;7.90;99.90
39079;DHT22;24829;49.208;12.080;2022-12-29T12:42:09;7.90;99.90
39079;DHT22;24829;49.208;12.080;2022-12-29T12:55:22;8.00;99.90
39079;DHT22;24829;49.208;12.080;2022-12-29T12:57:56;8.10;99.90
39079;DHT22;24829;49.208;12.080;2022-12-29T13:00:23;8.10;99.90
39079;DHT22;24829;49.208;12.080;2022-12-29T13:10:42;8.20;99.90
39079;DHT22;24829;49.208;12.080;2022-12-29T13:13:26;8.20;99.90
39079;DHT22;24829;49.208;12.080;2022-12-29T13:20:52;8.30;99.90
39079;DHT22;24829;49.208;12.080;2022-12-29T13:23:24;8.40;99.90
39079;DHT22;24829;49.208;12.080;2022-12-29T13:28:25;8.40;99.90
39079;DHT22;24829;49.208;12.080;2022-12-29T13:30:57;8.50;99.90
39079;DHT22;24829;49.208;12.080;2022-12-29T13:36:08;8.50;99.90
39079;DHT22;24829;49.208;12.080;2022-12-29T13:38:36;8.50;99.90
39079;DHT22;24829;49.208;12.080;2022-12-29T13:41:08;8.50;99.90
39079;DHT22;24829;49.208;12.080;2022-12-29T13:43:35;8.40;99.90
39079;DHT22;24829;49.208;12.080;2022-12-29T13:46:23;8.30;99.90
39079;DHT22;24829;49.208;12.080;2022-12-29T13:48:50;8.30;99.90
39079;DHT22;24829;49.208;12.080;2022-12-29T13:51:16;8.20;99.90
39079;DHT22;24829;49.208;12.080;2022-12-29T14:01:30;8.20;99.90
39079;DHT22;24829;49.208;12.080;2022-12-29T14:03:58;8.20;99.90
39079;DHT22;24829;49.208;12.080;2022-12-29T14:06:28;8.20;99.90
39079;DHT22;24829;49.208;12.080;2022-12-29T14:11:21;8.10;99.90
39079;DHT22;24829;49.208;12.080;2022-12-29T14:13:47;8.10;99.90
39079;DHT22;24829;49.208;12.080;2022-12-29T14:19:18;8.10;99.90
39079;DHT22;24829;49.208;12.080;2022-12-29T14:21:54;8.00;99.90
39079;DHT22;24829;49.208;12.080;2022-12-29T14:24:28;8.00;99.90
39079;DHT22;24829;49.208;12.080;2022-12-29T14:29:41;8.10;99.90
39079;DHT22;24829;49.208;12.080;2022-12-29T14:34:52;8.10;99.90
39079;DHT22;24829;49.208;12.080;2022-12-29T14:37:25;8.10;99.90
39079;DHT22;24829;49.208;12.080;2022-12-29T14:40:04;8.00;99.90
39079;DHT22;24829;49.208;12.080;2022-12-29T14:42:30;8.00;99.90
39079;DHT22;24829;49.208;12.080;2022-12-29T14:49:49;8.00;99.90
39079;DHT22;24829;49.208;12.080;2022-12-29T14:52:20;8.00;99.90
39079;DHT22;24829;49.208;12.080;2022-12-29T14:54:47;8.10;99.90
39079;DHT22;24829;49.208;12.080;2022-12-29T14:57:48;8.10;99.90
39079;DHT22;24829;49.208;12.080;2022-12-29T15:02:33;8.10;99.90
39079;DHT22;24829;49.208;12.080;2022-12-29T15:05:00;8.10;99.90
39079;DHT22;24829;49.208;12.080;2022-12-29T15:07:27;8.10;99.90
39079;DHT22;24829;49.208;12.080;2022-12-29T15:09:56;8.10;99.90
39079;DHT22;24829;49.208;12.080;2022-12-29T15:15:10;8.00;99.90
39079;DHT22;24829;49.208;12.080;2022-12-29T15:17:41;8.00;99.90
39079;DHT22;24829;49.208;12.080;2022-12-29T15:22:42;8.00;99.90
39079;DHT22;24829;49.208;12.080;2022-12-29T15:25:12;8.00;99.90
39079;DHT22;24829;49.208;12.080;2022-12-29T15:27:39;8.00;99.90
39079;DHT22;24829;49.208;12.080;2022-12-29T15:30:12;7.90;99.90
39079;DHT22;24829;49.208;12.080;2022-12-29T15:32:39;7.80;99.90
39079;DHT22;24829;49.208;12.080;2022-12-29T15:35:22;7.70;99.90
39079;DHT22;24829;49.208;12.080;2022-12-29T15:37:48;7.60;99.90
39079;DHT22;24829;49.208;12.080;2022-12-29T15:40:32;7.60;99.90
39079;DHT22;24829;49.208;12.080;2022-12-29T15:43:05;7.50;99.90
39079;DHT22;24829;49.208;12.080;2022-12-29T15:45:34;7.50;99.90
39079;DHT22;24829;49.208;12.080;2022-12-29T15:48:00;7.50;99.90
39079;DHT22;24829;49.208;12.080;2022-12-29T15:50:27;7.60;99.90
39079;DHT22;24829;49.208;12.080;2022-12-29T15:52:53;7.60;99.90
39079;DHT22;24829;49.208;12.080;2022-12-29T15:55:30;7.60;99.90
39079;DHT22;24829;49.208;12.080;2022-12-29T15:58:00;7.60;99.90
39079;DHT22;24829;49.208;12.080;2022-12-29T16:00:27;7.70;99.90
39079;DHT22;24829;49.208;12.080;2022-12-29T16:02:53;7.60;99.90
39079;DHT22;24829;49.208;12.080;2022-12-29T16:05:19;7.50;99.90
39079;DHT22;24829;49.208;12.080;2022-12-29T16:07:58;7.50;99.90
39079;DHT22;24829;49.208;12.080;2022-12-29T16:12:54;7.50;99.90
39079;DHT22;24829;49.208;12.080;2022-12-29T16:15:19;7.50;99.90
39079;DHT22;24829;49.208;12.080;2022-12-29T16:17:48;7.50;99.90
39079;DHT22;24829;49.208;12.080;2022-12-29T16:20:20;7.50;99.90
39079;DHT22;24829;49.208;12.080;2022-12-29T16:22:51;7.60;99.90
39079;DHT22;24829;49.208;12.080;2022-12-29T16:25:25;7.60;99.90
39079;DHT22;24829;49.208;12.080;2022-12-29T16:27:53;7.70;99.90
39079;DHT22;24829;49.208;12.080;2022-12-29T16:32:51;7.70;99.90
39079;DHT22;24829;49.208;12.080;2022-12-29T16:37:42;7.70;99.90
39079;DHT22;24829;49.208;12.080;2022-12-29T16:42:45;7.70;99.90
39079;DHT22;24829;49.208;12.080;2022-12-29T16:47:43;7.70;99.90
39079;DHT22;24829;49.208;12.080;2022-12-29T16:50:13;7.70;99.90
39079;DHT22;24829;49.208;12.080;2022-12-29T16:52:41;7.80;99.90
39079;DHT22;24829;49.208;12.080;2022-12-29T16:55:14;7.80;99.90
39079;DHT22;24829;49.208;12.080;2022-12-29T16:57:39;7.80;99.90
39079;DHT22;24829;49.208;12.080;2022-12-29T17:00:08;7.80;99.90
39079;DHT22;24829;49.208;12.080;2022-12-29T17:02:43;7.70;99.90
39079;DHT22;24829;49.208;12.080;2022-12-29T17:05:14;7.70;99.90
39079;DHT22;24829;49.208;12.080;2022-12-29T17:07:39;7.70;99.90
39079;DHT22;24829;49.208;12.080;2022-12-29T17:10:05;7.70;99.90
39079;DHT22;24829;49.208;12.080;2022-12-29T17:12:30;7.60;99.90
39079;DHT22;24829;49.208;12.080;2022-12-29T17:15:02;7.60;99.90
39079;DHT22;24829;49.208;12.080;2022-12-29T17:20:09;7.70;99.90
39079;DHT22;24829;49.208;12.080;2022-12-29T17:22:39;7.60;99.90
39079;DHT22;24829;49.208;12.080;2022-12-29T17:25:04;7.60;99.90
39079;DHT22;24829;49.208;12.080;2022-12-29T17:27:35;7.50;99.90
39079;DHT22;24829;49.208;12.080;2022-12-29T17:30:08;7.40;99.90
39079;DHT22;24829;49.208;12.080;2022-12-29T17:32:34;7.30;99.90
39079;DHT22;24829;49.208;12.080;2022-12-29T17:35:00;7.30;99.90
39079;DHT22;24829;49.208;12.080;2022-12-29T17:37:27;7.30;99.90
39079;DHT22;24829;49.208;12.080;2022-12-29T17:39:53;7.30;99.90
39079;DHT22;24829;49.208;12.080;2022-12-29T17:42:18;7.30;99.90
39079;DHT22;24829;49.208;12.080;2022-12-29T17:44:44;7.40;99.90
39079;DHT22;24829;49.208;12.080;2022-12-29T17:47:10;7.50;99.90
39079;DHT22;24829;49.208;12.080;2022-12-29T17:49:35;7.60;99.90
39079;DHT22;24829;49.208;12.080;2022-12-29T17:52:01;7.60;99.90
39079;DHT22;24829;49.208;12.080;2022-12-29T17:54:27;7.60;99.90
39079;DHT22;24829;49.208;12.080;2022-12-29T17:56:52;7.70;99.90
39079;DHT22;24829;49.208;12.080;2022-12-29T17:59:18;7.70;99.90
39079;DHT22;24829;49.208;12.080;2022-12-29T18:01:44;7.70;99.90